This is the latest recevied weather packets stored in our database for station/object K0CVS. If no packets are shown the sender has not sent any weather packets the latest 10 day(s).
| Time | Temp. | Humidity | Pressure | Rain* | Wind** | Luminosity | Snow |
|---|---|---|---|---|---|---|---|
| 1777873945 | 20.56° C | 44% | 1007.3 hPa | 0 mm | - | 0 W/m² | - |
| 1777873641 | 20.56° C | 43% | 1007.2 hPa | 0 mm | - | 0 W/m² | - |
| 1777873339 | 20° C | 43% | 1007.5 hPa | 0 mm | - | 0 W/m² | - |
| 1777873036 | 20° C | 45% | 1007.5 hPa | 0 mm | - | 0 W/m² | - |
| 1777872732 | 20° C | 45% | 1007.7 hPa | 0 mm | - | 0 W/m² | - |
| 1777872429 | 20.56° C | 44% | 1007.7 hPa | 0 mm | - | 0 W/m² | - |
| 1777872128 | 20.56° C | 43% | 1007.8 hPa | 0 mm | - | 0 W/m² | - |
| 1777871824 | 20.56° C | 42% | 1007.8 hPa | 0 mm | - | 0 W/m² | - |
| 1777871521 | 20.56° C | 42% | 1007.9 hPa | 0 mm | - | 0 W/m² | - |
| 1777871218 | 19.44° C | 44% | 1008.1 hPa | 0 mm | - | 0 W/m² | - |
| 1777870915 | 18.33° C | 53% | 1008.2 hPa | 0 mm | - | 0 W/m² | - |
| 1777870612 | 18.33° C | 55% | 1008.1 hPa | 0 mm | - | 0 W/m² | - |
| 1777870312 | 18.33° C | 54% | 1008.1 hPa | 0 mm | - | 0 W/m² | - |
| 1777870010 | 18.33° C | 54% | 1007.9 hPa | 0 mm | - | 0 W/m² | - |
| 1777869706 | 18.89° C | 54% | 1008.1 hPa | 0 mm | - | 0 W/m² | - |
| 1777869403 | 18.89° C | 53% | 1008.1 hPa | 0 mm | - | 0 W/m² | - |
| 1777869101 | 18.89° C | 53% | 1008.2 hPa | 0 mm | - | 0 W/m² | - |
| 1777868798 | 18.89° C | 53% | 1008 hPa | 0 mm | - | 0 W/m² | - |
| 1777868494 | 18.89° C | 53% | 1007.9 hPa | 0 mm | - | 0 W/m² | - |
| 1777868190 | 18.33° C | 54% | 1008.1 hPa | 0 mm | - | 0 W/m² | - |
| 1777867887 | 18.33° C | 55% | 1007.9 hPa | 0 mm | - | 0 W/m² | - |
| 1777867584 | 18.33° C | 59% | 1007.5 hPa | 0 mm | - | 0 W/m² | - |
| 1777867281 | 18.33° C | 60% | 1007.7 hPa | 0 mm | - | 0 W/m² | - |
| 1777866978 | 18.33° C | 59% | 1007.9 hPa | 0 mm | - | 0 W/m² | - |
| 1777866674 | 18.33° C | 58% | 1007.8 hPa | 0 mm | - | 0 W/m² | - |
* Rain latest hour (hover to see other rain measurements)
** Current wind speed in m/s (hover to see current wind gust speed)